Time;durP1;ratioP1;P1;durP2;ratioP2;P2;SDS_P1;SDS_P2;PMS_P1;PMS_P2;Temp;Humidity;BMP_temperature;BMP_pressure;BME280_temperature;BME280_humidity;BME280_pressure;Samples;Min_cycle;Max_cycle;Signal;HPM_P1;HPM_P2
2022/12/29 00:00:21;;;;;;;5.00;2.03;;;8.70;1.00;;;;;;7362388;19;20026;-72
2022/12/29 00:02:51;;;;;;;3.63;1.85;;;8.70;1.00;;;;;;7368719;19;20011;-73
2022/12/29 00:05:23;;;;;;;2.65;1.80;;;8.80;1.00;;;;;;7363250;19;20138;-73
2022/12/29 00:07:58;;;;;;;3.97;1.90;;;8.80;1.00;;;;;;7366328;19;20087;-72
2022/12/29 00:10:28;;;;;;;2.40;1.65;;;8.80;1.00;;;;;;7383183;19;21236;-72
2022/12/29 00:15:40;;;;;;;4.55;1.80;;;8.80;1.00;;;;;;7386409;19;20018;-72
2022/12/29 00:18:10;;;;;;;5.35;1.73;;;8.70;1.00;;;;;;7366895;19;20027;-73
2022/12/29 00:37:07;;;;;;;2.38;1.70;;;8.90;1.00;;;;;;7386276;19;20010;-74
2022/12/29 00:45:04;;;;;;;3.58;1.60;;;8.90;1.00;;;;;;7385415;19;20030;-73
2022/12/29 00:47:34;;;;;;;3.28;1.60;;;9.00;1.00;;;;;;7391018;19;20039;-73
2022/12/29 00:50:01;;;;;;;5.63;1.90;;;9.00;1.00;;;;;;7388334;19;20021;-73
2022/12/29 00:52:34;;;;;;;3.20;1.50;;;8.90;1.00;;;;;;7391689;19;20014;-73
2022/12/29 00:55:04;;;;;;;5.72;2.45;;;9.00;1.00;;;;;;7388775;19;20014;-73
2022/12/29 00:57:34;;;;;;;4.88;2.00;;;9.00;1.00;;;;;;7390629;19;20507;-73
2022/12/29 01:00:04;;;;;;;2.70;1.50;;;9.00;1.00;;;;;;7347503;19;20026;-73
2022/12/29 01:02:35;;;;;;;3.78;1.63;;;9.20;1.00;;;;;;7384756;19;20011;-73
2022/12/29 01:05:06;;;;;;;4.60;1.55;;;9.10;1.00;;;;;;7382124;19;20021;-73
2022/12/29 01:07:38;;;;;;;2.78;1.42;;;9.10;1.00;;;;;;7363197;19;20550;-73
2022/12/29 01:10:09;;;;;;;4.80;1.73;;;9.30;1.00;;;;;;7360111;19;20018;-73
2022/12/29 01:12:45;;;;;;;5.30;2.10;;;9.20;1.00;;;;;;7362164;19;20401;-73
2022/12/29 01:15:16;;;;;;;5.20;2.85;;;9.20;1.00;;;;;;7360862;19;20006;-72
2022/12/29 01:17:46;;;;;;;4.00;1.92;;;9.20;1.00;;;;;;7363054;19;20016;-73
2022/12/29 01:20:17;;;;;;;4.68;2.03;;;9.20;1.00;;;;;;7378533;19;20018;-73
2022/12/29 01:22:49;;;;;;;2.97;1.50;;;9.20;1.00;;;;;;7360668;19;20025;-73
2022/12/29 01:25:19;;;;;;;3.47;1.67;;;9.30;1.00;;;;;;7360687;19;20018;-73
2022/12/29 01:27:49;;;;;;;2.60;1.70;;;9.20;1.00;;;;;;7362720;19;20006;-72
2022/12/29 01:30:19;;;;;;;2.67;1.70;;;9.20;1.00;;;;;;7358505;19;20021;-73
2022/12/29 01:32:48;;;;;;;3.72;1.60;;;9.40;1.00;;;;;;7361841;19;20115;-73
2022/12/29 01:35:18;;;;;;;5.05;1.50;;;9.40;1.00;;;;;;7381639;19;20028;-73
2022/12/29 01:37:51;;;;;;;3.47;1.95;;;9.40;1.00;;;;;;7362179;19;20097;-73
2022/12/29 01:40:21;;;;;;;4.45;1.35;;;9.30;1.00;;;;;;7359466;19;20007;-73
2022/12/29 01:42:51;;;;;;;6.00;1.67;;;9.30;1.00;;;;;;7359919;19;20034;-73
2022/12/29 01:45:21;;;;;;;2.38;1.60;;;9.40;1.00;;;;;;7359222;19;20469;-73
2022/12/29 01:47:55;;;;;;;3.42;1.40;;;9.30;1.00;;;;;;7362719;19;20082;-73
2022/12/29 01:50:31;;;;;;;6.65;2.00;;;9.40;1.00;;;;;;7379578;19;20017;-72
2022/12/29 01:53:08;;;;;;;2.53;1.80;;;9.40;1.00;;;;;;7361066;19;20007;-73
2022/12/29 01:55:42;;;;;;;4.60;1.83;;;9.30;1.00;;;;;;7361655;19;20386;-72
2022/12/29 01:58:17;;;;;;;3.03;2.10;;;9.40;1.00;;;;;;7361516;19;20014;-72
2022/12/29 02:00:47;;;;;;;6.07;1.85;;;9.40;1.00;;;;;;7359922;19;20021;-73
2022/12/29 02:03:18;;;;;;;2.13;1.50;;;9.40;1.00;;;;;;7385697;19;20007;-73
2022/12/29 02:05:57;;;;;;;4.32;1.70;;;9.40;1.00;;;;;;7388556;19;20015;-73
2022/12/29 02:08:31;;;;;;;4.32;1.77;;;9.30;1.00;;;;;;7389184;19;20017;-73
2022/12/29 02:11:03;;;;;;;3.30;1.60;;;9.30;1.00;;;;;;7388067;19;20015;-73
2022/12/29 02:13:33;;;;;;;2.97;1.58;;;9.30;1.00;;;;;;7385048;19;20086;-73
2022/12/29 02:16:12;;;;;;;3.25;1.73;;;9.40;1.00;;;;;;7390754;19;20016;-73
2022/12/29 02:18:51;;;;;;;3.30;1.60;;;9.40;1.00;;;;;;7387008;19;20029;-73
2022/12/29 02:21:53;;;;;;;4.68;1.60;;;9.40;1.00;;;;;;7387723;19;20014;-73
2022/12/29 02:25:04;;;;;;;3.97;1.42;;;9.40;1.00;;;;;;7383953;19;20022;-73
2022/12/29 02:27:51;;;;;;;2.75;1.45;;;9.40;1.00;;;;;;7387959;19;20025;-73
2022/12/29 02:30:45;;;;;;;2.75;1.50;;;9.50;1.00;;;;;;7385026;19;20018;-73
2022/12/29 02:33:26;;;;;;;1.90;1.23;;;9.40;1.00;;;;;;7382766;19;20021;-73
2022/12/29 02:36:03;;;;;;;1.48;1.20;;;9.40;1.00;;;;;;7389319;19;20010;-73
2022/12/29 02:38:49;;;;;;;1.45;1.20;;;9.40;1.00;;;;;;7388101;19;20015;-73
2022/12/29 02:41:24;;;;;;;3.20;1.90;;;9.40;1.00;;;;;;7390986;19;20025;-73
2022/12/29 02:44:01;;;;;;;2.72;1.40;;;9.50;1.00;;;;;;7386982;19;20014;-73
2022/12/29 02:46:38;;;;;;;3.20;1.45;;;9.50;1.00;;;;;;7387032;19;20014;-73
2022/12/29 02:49:15;;;;;;;3.92;1.48;;;9.50;1.00;;;;;;7387298;19;20754;-73
2022/12/29 02:51:54;;;;;;;2.42;1.30;;;9.40;1.00;;;;;;7388377;19;20589;-73
2022/12/29 02:57:17;;;;;;;1.80;1.33;;;9.40;1.00;;;;;;7386922;19;20014;-73
2022/12/29 02:59:49;;;;;;;3.33;1.25;;;9.30;1.00;;;;;;7386543;19;20019;-72
2022/12/29 03:02:36;;;;;;;3.15;1.23;;;9.30;1.00;;;;;;7388294;19;20039;-73
2022/12/29 03:05:22;;;;;;;3.00;1.30;;;9.30;1.00;;;;;;7387314;19;20486;-72
2022/12/29 03:07:56;;;;;;;;;;;9.40;1.00;;;;;;7388769;19;20486;-74
2022/12/29 03:10:35;;;;;;;4.10;1.15;;;9.40;1.00;;;;;;7385773;19;20363;-74
2022/12/29 03:16:07;;;;;;;4.32;1.33;;;9.30;1.00;;;;;;7388264;19;20081;-74
2022/12/29 03:18:56;;;;;;;4.22;1.50;;;9.50;1.00;;;;;;7386543;19;20039;-74
2022/12/29 03:24:18;;;;;;;3.78;1.50;;;9.40;1.00;;;;;;7386814;19;20023;-74
2022/12/29 03:26:50;;;;;;;4.43;1.27;;;9.30;1.00;;;;;;7385903;19;20022;-73
2022/12/29 03:29:21;;;;;;;1.75;1.40;;;9.40;1.00;;;;;;7385558;19;20039;-73
2022/12/29 03:31:54;;;;;;;2.88;1.15;;;9.40;1.00;;;;;;7387458;19;20133;-73
2022/12/29 03:34:27;;;;;;;2.95;1.20;;;9.40;1.00;;;;;;7387205;19;20025;-73
2022/12/29 03:37:05;;;;;;;4.18;1.42;;;9.50;1.00;;;;;;7387675;19;20111;-73
2022/12/29 03:39:36;;;;;;;1.70;1.00;;;9.50;1.00;;;;;;7385426;19;20045;-73
2022/12/29 03:42:10;;;;;;;1.67;1.13;;;9.40;1.00;;;;;;7385467;19;20359;-73
2022/12/29 03:44:43;;;;;;;;;;;9.40;1.00;;;;;;7393786;19;20023;-73
2022/12/29 03:47:13;;;;;;;2.28;1.48;;;9.30;1.00;;;;;;7394661;19;19926;-73
2022/12/29 03:49:45;;;;;;;4.40;1.40;;;9.30;1.00;;;;;;7392192;19;20496;-74
2022/12/29 03:52:15;;;;;;;2.95;1.20;;;9.30;1.00;;;;;;7393154;19;20014;-73
2022/12/29 03:54:48;;;;;;;3.08;1.30;;;9.30;1.00;;;;;;7393791;19;20015;-73
2022/12/29 03:57:18;;;;;;;2.00;1.38;;;9.30;1.00;;;;;;7393826;19;20081;-73
2022/12/29 03:59:48;;;;;;;2.90;1.45;;;9.30;1.00;;;;;;7390009;19;20015;-73
2022/12/29 04:02:17;;;;;;;3.45;1.30;;;9.20;1.00;;;;;;7394034;19;20340;-73
2022/12/29 04:04:50;;;;;;;2.60;1.13;;;9.20;1.00;;;;;;7394602;19;20015;-73
2022/12/29 04:07:20;;;;;;;4.47;1.30;;;9.20;1.00;;;;;;7391382;19;20016;-72
2022/12/29 04:09:50;;;;;;;2.17;1.15;;;9.30;1.00;;;;;;7391312;19;20014;-72
2022/12/29 04:12:20;;;;;;;4.30;1.45;;;9.50;1.00;;;;;;7393885;19;20025;-72
2022/12/29 04:14:50;;;;;;;4.53;1.20;;;9.60;1.00;;;;;;7398114;19;20010;-73
2022/12/29 04:17:22;;;;;;;2.08;1.13;;;9.50;1.00;;;;;;7393603;19;20022;-72
2022/12/29 04:20:59;;;;;;;1.70;1.05;;;9.80;1.00;;;;;;7390959;19;20031;-72
2022/12/29 04:22:45;;;;;;;3.17;1.65;;;9.80;1.00;;;;;;7392984;19;20529;-73
2022/12/29 04:25:15;;;;;;;1.63;1.02;;;9.90;1.00;;;;;;7391389;19;20043;-73
2022/12/29 04:27:47;;;;;;;2.17;1.05;;;10.20;1.00;;;;;;7393171;19;20393;-73
2022/12/29 04:30:17;;;;;;;4.10;1.20;;;10.20;1.00;;;;;;7390142;19;20022;-72
2022/12/29 04:32:47;;;;;;;3.13;1.10;;;10.20;1.00;;;;;;7393094;19;20565;-72
2022/12/29 04:35:21;;;;;;;2.78;1.20;;;10.20;1.00;;;;;;7392508;19;20022;-72
2022/12/29 04:37:51;;;;;;;3.65;1.15;;;10.00;1.00;;;;;;7393106;19;20047;-72
2022/12/29 04:40:21;;;;;;;2.13;1.15;;;9.90;1.00;;;;;;7389803;19;20031;-74
2022/12/29 04:42:51;;;;;;;1.88;1.23;;;9.80;1.00;;;;;;7392326;19;20028;-73
2022/12/29 04:45:21;;;;;;;1.38;1.10;;;9.60;1.00;;;;;;7308791;19;20011;-72
2022/12/29 04:47:51;;;;;;;3.00;1.20;;;9.40;1.00;;;;;;7392126;19;20022;-73
2022/12/29 04:50:23;;;;;;;2.60;1.38;;;9.30;1.00;;;;;;7363337;19;20010;-73
2022/12/29 04:52:53;;;;;;;3.17;1.30;;;9.40;1.00;;;;;;7364858;19;20015;-73
2022/12/29 04:55:27;;;;;;;7.07;1.38;;;9.30;1.00;;;;;;7361056;19;20015;-73
2022/12/29 04:57:56;;;;;;;3.08;1.20;;;9.50;1.00;;;;;;7364962;19;20031;-74
2022/12/29 05:00:26;;;;;;;2.45;1.17;;;9.50;1.00;;;;;;7383012;19;20092;-73
2022/12/29 05:02:56;;;;;;;3.95;1.30;;;9.50;1.00;;;;;;7364295;19;20020;-73
2022/12/29 05:05:29;;;;;;;2.72;1.00;;;9.70;1.00;;;;;;7364522;19;20007;-73
2022/12/29 05:07:59;;;;;;;3.78;1.50;;;9.80;1.00;;;;;;7364631;19;20015;-73
2022/12/29 05:10:29;;;;;;;3.40;1.35;;;9.80;1.00;;;;;;7362122;19;20506;-73
2022/12/29 05:13:00;;;;;;;2.20;1.13;;;9.90;1.00;;;;;;7364262;19;20022;-74
2022/12/29 05:15:30;;;;;;;1.77;1.17;;;9.90;1.00;;;;;;7385015;19;20006;-71
2022/12/29 05:18:00;;;;;;;4.43;1.48;;;9.70;1.00;;;;;;7362971;19;20006;-73
2022/12/29 05:20:35;;;;;;;1.98;1.20;;;9.90;1.00;;;;;;7362680;19;20015;-73
2022/12/29 05:23:04;;;;;;;2.97;1.20;;;9.90;1.00;;;;;;7364635;19;20032;-73
2022/12/29 05:25:34;;;;;;;3.72;1.75;;;10.20;1.00;;;;;;7363614;19;20018;-73
2022/12/29 05:28:04;;;;;;;2.58;1.50;;;10.20;1.00;;;;;;7361861;19;20014;-73
2022/12/29 05:30:34;;;;;;;2.05;1.35;;;10.40;1.00;;;;;;7382045;19;20019;-73
2022/12/29 05:33:06;;;;;;;2.72;1.30;;;10.40;1.00;;;;;;7363221;19;20020;-72
2022/12/29 05:35:38;;;;;;;3.47;1.40;;;10.30;1.00;;;;;;7363499;19;20031;-72
2022/12/29 05:38:08;;;;;;;2.85;1.40;;;10.50;1.00;;;;;;7363904;19;20010;-72
2022/12/29 05:40:38;;;;;;;2.95;1.20;;;10.50;1.00;;;;;;7362514;19;20014;-72
2022/12/29 05:43:08;;;;;;;2.72;1.55;;;10.70;1.00;;;;;;7362614;19;20014;-73
2022/12/29 05:45:38;;;;;;;3.08;1.55;;;10.90;1.00;;;;;;7391924;19;20010;-73
2022/12/29 05:48:08;;;;;;;5.35;1.50;;;10.80;1.00;;;;;;7393207;19;20478;-73
2022/12/29 05:50:40;;;;;;;2.47;1.30;;;10.90;1.00;;;;;;7390054;19;20078;-73
2022/12/29 05:53:10;;;;;;;1.63;1.20;;;10.80;1.00;;;;;;7390606;19;20096;-73
2022/12/29 05:55:40;;;;;;;2.70;1.20;;;11.00;1.00;;;;;;7388398;19;20470;-74
2022/12/29 05:58:17;;;;;;;3.22;1.30;;;11.10;1.00;;;;;;7389861;19;20048;-72
2022/12/29 06:00:47;;;;;;;2.88;1.50;;;11.20;1.00;;;;;;7390441;19;20332;-72
2022/12/29 06:03:17;;;;;;;6.28;1.58;;;11.20;1.00;;;;;;7388337;19;20687;-73
2022/12/29 06:05:50;;;;;;;3.03;1.45;;;11.10;1.00;;;;;;7389593;19;20025;-73
2022/12/29 06:08:20;;;;;;;2.13;1.52;;;11.20;1.00;;;;;;7385625;19;20683;-74
2022/12/29 06:10:49;;;;;;;2.35;1.30;;;11.20;1.00;;;;;;7387612;19;20092;-73
2022/12/29 06:13:22;;;;;;;2.88;1.38;;;11.20;1.00;;;;;;7391588;19;20014;-72
2022/12/29 06:15:52;;;;;;;3.78;1.05;;;11.10;1.00;;;;;;7389196;19;20014;-73
2022/12/29 06:18:22;;;;;;;5.25;1.80;;;11.10;1.00;;;;;;7388916;19;20015;-73
2022/12/29 06:20:55;;;;;;;6.35;1.40;;;11.30;1.00;;;;;;7388883;19;20010;-74
2022/12/29 06:23:24;;;;;;;4.07;1.40;;;11.30;1.00;;;;;;7389688;19;20054;-73
2022/12/29 06:25:54;;;;;;;1.88;1.25;;;11.20;1.00;;;;;;7389202;19;20046;-73
2022/12/29 06:28:24;;;;;;;2.58;1.33;;;11.30;1.00;;;;;;7386872;19;20014;-74
2022/12/29 06:30:54;;;;;;;2.28;1.38;;;11.10;1.00;;;;;;7388495;19;20377;-72
2022/12/29 06:33:25;;;;;;;3.22;1.33;;;11.20;1.00;;;;;;7389080;19;20021;-73
2022/12/29 06:35:57;;;;;;;7.75;1.50;;;11.10;1.00;;;;;;7387685;19;20015;-72
2022/12/29 06:38:27;;;;;;;2.90;1.48;;;11.10;1.00;;;;;;7388124;19;20032;-73
2022/12/29 06:40:57;;;;;;;2.35;1.42;;;11.10;1.00;;;;;;7388672;19;20078;-73
2022/12/29 06:43:26;;;;;;;1.70;1.27;;;10.90;1.00;;;;;;7388679;19;20022;-73
2022/12/29 06:45:56;;;;;;;3.85;1.40;;;11.00;1.00;;;;;;7388419;19;20109;-73
2022/12/29 06:48:26;;;;;;;5.22;1.40;;;11.00;1.00;;;;;;7386637;19;20010;-74
2022/12/29 06:50:58;;;;;;;4.18;1.50;;;10.90;1.00;;;;;;7388288;19;20010;-74
2022/12/29 06:53:28;;;;;;;2.55;1.38;;;11.10;1.00;;;;;;7388536;19;20003;-74
2022/12/29 06:55:58;;;;;;;2.97;1.60;;;10.90;1.00;;;;;;7388019;19;20006;-74
2022/12/29 06:58:28;;;;;;;2.80;1.50;;;11.00;1.00;;;;;;7387245;19;20022;-73
2022/12/29 07:00:58;;;;;;;2.40;1.50;;;10.90;1.00;;;;;;7387678;19;20018;-73
2022/12/29 07:03:28;;;;;;;4.28;1.92;;;11.00;1.00;;;;;;7388167;19;20049;-73
2022/12/29 07:06:00;;;;;;;2.92;1.30;;;11.00;1.00;;;;;;7387774;19;20017;-73
2022/12/29 07:08:30;;;;;;;4.57;1.60;;;10.80;1.00;;;;;;7386055;19;20507;-74
2022/12/29 07:11:00;;;;;;;4.25;2.28;;;10.90;1.00;;;;;;7385799;19;20078;-73
2022/12/29 07:13:30;;;;;;;1.85;1.60;;;11.10;1.00;;;;;;7389621;19;20018;-74
2022/12/29 07:16:02;;;;;;;1.67;1.30;;;11.00;1.00;;;;;;7387546;19;20064;-74
2022/12/29 07:18:31;;;;;;;1.83;1.15;;;10.90;1.00;;;;;;7389503;19;20030;-74
2022/12/29 07:21:05;;;;;;;2.40;1.67;;;10.90;1.00;;;;;;7393159;19;20018;-73
2022/12/29 07:23:35;;;;;;;3.35;2.22;;;10.90;1.00;;;;;;7393338;19;20051;-73
2022/12/29 07:26:06;;;;;;;5.13;1.75;;;10.80;1.00;;;;;;7394932;19;20086;-73
2022/12/29 07:28:38;;;;;;;2.40;1.50;;;10.90;1.00;;;;;;7392916;19;20641;-73
2022/12/29 07:31:08;;;;;;;2.25;1.70;;;11.00;1.00;;;;;;7395046;19;20018;-73
2022/12/29 07:33:38;;;;;;;3.85;1.77;;;10.90;1.00;;;;;;7394786;19;20077;-72
2022/12/29 07:36:10;;;;;;;3.50;2.13;;;10.90;1.00;;;;;;7394439;19;20024;-73
2022/12/29 07:38:41;;;;;;;4.60;1.35;;;11.00;1.00;;;;;;7393570;19;20038;-73
2022/12/29 07:41:11;;;;;;;3.22;2.00;;;11.00;1.00;;;;;;7393229;19;20099;-73
2022/12/29 07:43:41;;;;;;;4.60;1.70;;;10.90;1.00;;;;;;7393282;19;20022;-73
2022/12/29 07:46:11;;;;;;;2.67;1.30;;;10.90;1.00;;;;;;7397927;19;20050;-73
2022/12/29 07:49:01;;;;;;;3.35;1.60;;;10.90;1.00;;;;;;7393533;19;20025;-73
2022/12/29 07:51:34;;;;;;;3.97;1.75;;;10.80;1.00;;;;;;7396072;19;20028;-73
2022/12/29 07:54:03;;;;;;;5.38;1.40;;;10.90;1.00;;;;;;7397461;19;20011;-74
2022/12/29 07:56:33;;;;;;;2.28;1.55;;;10.90;1.00;;;;;;7397596;19;20015;-74
2022/12/29 07:59:03;;;;;;;3.15;1.67;;;10.80;1.00;;;;;;7396378;19;20501;-72
2022/12/29 08:01:33;;;;;;;4.65;1.77;;;10.80;1.00;;;;;;7393958;19;20020;-73
2022/12/29 08:04:03;;;;;;;2.92;1.80;;;10.80;1.00;;;;;;7397237;19;20018;-73
2022/12/29 08:06:37;;;;;;;5.20;1.73;;;10.80;1.00;;;;;;7396780;19;20365;-73
2022/12/29 08:09:07;;;;;;;3.88;1.40;;;10.80;1.00;;;;;;7394544;19;20091;-72
2022/12/29 08:11:48;;;;;;;4.30;2.58;;;10.80;1.00;;;;;;7396336;19;20029;-73
2022/12/29 08:14:18;;;;;;;3.67;1.90;;;10.90;1.00;;;;;;7397621;19;20021;-73
2022/12/29 08:16:48;;;;;;;5.47;1.48;;;10.80;1.00;;;;;;7397018;19;20384;-73
2022/12/29 08:19:17;;;;;;;5.85;1.60;;;10.90;1.00;;;;;;7391644;19;20367;-73
2022/12/29 08:21:51;;;;;;;4.72;1.70;;;10.90;1.00;;;;;;7395948;19;20112;-73
2022/12/29 08:24:20;;;;;;;3.22;1.65;;;10.80;1.00;;;;;;7346872;19;20013;-73
2022/12/29 08:26:50;;;;;;;2.60;1.42;;;10.80;1.00;;;;;;7368360;19;20006;-73
2022/12/29 08:29:21;;;;;;;3.83;1.70;;;10.70;1.00;;;;;;7382257;19;20021;-73
2022/12/29 08:31:51;;;;;;;3.55;1.85;;;10.70;1.00;;;;;;7363936;19;20090;-73
2022/12/29 08:34:20;;;;;;;3.90;2.10;;;10.80;1.00;;;;;;7366955;19;20017;-73
2022/12/29 08:36:53;;;;;;;3.22;1.58;;;10.70;1.00;;;;;;7367593;19;20010;-73
2022/12/29 08:39:23;;;;;;;6.35;2.25;;;11.00;1.00;;;;;;7364942;19;20014;-73
2022/12/29 08:41:52;;;;;;;3.40;1.98;;;10.90;1.00;;;;;;7366550;19;20087;-73
2022/12/29 08:44:22;;;;;;;3.00;1.50;;;10.90;1.00;;;;;;7388508;19;20455;-74
2022/12/29 08:46:52;;;;;;;3.72;1.80;;;10.90;1.00;;;;;;7367444;19;20479;-73
2022/12/29 08:49:22;;;;;;;4.38;1.58;;;10.90;1.00;;;;;;7363538;19;20403;-73
2022/12/29 08:51:55;;;;;;;2.83;1.20;;;10.90;1.00;;;;;;7367408;19;20011;-73
2022/12/29 08:54:25;;;;;;;3.20;1.65;;;10.90;1.00;;;;;;7363656;19;20024;-73
2022/12/29 08:56:54;;;;;;;3.58;1.80;;;10.90;1.00;;;;;;7363871;19;20006;-73
2022/12/29 08:59:24;;;;;;;2.30;1.38;;;10.90;1.00;;;;;;7383831;19;20116;-73
2022/12/29 09:01:57;;;;;;;3.92;1.60;;;10.90;1.00;;;;;;7363273;19;20086;-73
2022/12/29 09:04:27;;;;;;;3.95;2.10;;;10.80;1.00;;;;;;7364531;19;20014;-73
2022/12/29 09:06:59;;;;;;;4.45;2.05;;;10.90;1.00;;;;;;7363833;19;20038;-73
2022/12/29 09:09:29;;;;;;;5.72;2.03;;;11.00;1.00;;;;;;7363012;19;20520;-74
2022/12/29 09:11:59;;;;;;;5.55;1.92;;;11.10;1.00;;;;;;7362253;19;20022;-74
2022/12/29 09:14:29;;;;;;;4.28;1.70;;;11.10;1.00;;;;;;7389285;19;20014;-74
2022/12/29 09:19:41;;;;;;;23.33;14.60;;;11.30;1.00;;;;;;7360898;19;20543;-73
2022/12/29 09:22:14;;;;;;;7.95;5.20;;;11.30;1.00;;;;;;7363581;19;20441;-74
2022/12/29 09:24:43;;;;;;;9.48;6.00;;;11.40;1.00;;;;;;7365455;19;20489;-73
2022/12/29 09:27:13;;;;;;;3.38;1.80;;;11.50;1.00;;;;;;7394609;19;20396;-73
2022/12/29 09:29:43;;;;;;;4.85;1.25;;;11.40;1.00;;;;;;7388990;19;20015;-73
2022/12/29 09:32:13;;;;;;;2.72;1.65;;;11.50;1.00;;;;;;7390886;19;20029;-74
2022/12/29 09:34:47;;;;;;;5.30;1.95;;;11.60;1.00;;;;;;7393632;19;20025;-74
2022/12/29 09:37:21;;;;;;;7.35;2.20;;;11.60;1.00;;;;;;7394817;19;20022;-74
2022/12/29 09:39:51;;;;;;;4.03;1.90;;;11.70;1.00;;;;;;7388354;19;20014;-75
2022/12/29 09:42:29;;;;;;;7.32;2.08;;;11.70;1.00;;;;;;7389130;19;20761;-73
2022/12/29 09:45:13;;;;;;;5.60;2.03;;;11.70;1.00;;;;;;7390282;19;20010;-73
2022/12/29 09:47:44;;;;;;;5.90;1.90;;;11.70;1.00;;;;;;7389070;19;20500;-74
2022/12/29 09:50:25;;;;;;;8.88;1.98;;;11.70;1.00;;;;;;7387865;19;20083;-75
2022/12/29 09:53:04;;;;;;;3.72;1.80;;;11.80;1.00;;;;;;7389535;19;20014;-74
2022/12/29 09:55:39;;;;;;;4.82;2.08;;;11.80;1.00;;;;;;7391880;19;20035;-74
2022/12/29 09:58:15;;;;;;;5.95;2.55;;;12.00;1.00;;;;;;7390407;19;20024;-72
2022/12/29 10:00:52;;;;;;;16.60;10.77;;;12.00;1.00;;;;;;7390460;19;20013;-74
2022/12/29 10:03:27;;;;;;;7.63;3.50;;;12.00;1.00;;;;;;7389689;19;20025;-73
2022/12/29 10:06:02;;;;;;;5.57;1.90;;;12.00;1.00;;;;;;7422162;19;20003;-73
2022/12/29 10:08:40;;;;;;;4.07;1.63;;;12.10;1.00;;;;;;7421249;19;20035;-74
2022/12/29 10:11:21;;;;;;;3.95;1.83;;;12.40;1.00;;;;;;7404219;19;20104;-71
2022/12/29 10:14:05;;;;;;;2.65;1.20;;;12.50;1.00;;;;;;7394468;19;20010;-74
2022/12/29 10:16:52;;;;;;;1.40;1.17;;;12.60;1.00;;;;;;7390578;19;20026;-73
2022/12/29 10:19:36;;;;;;;3.75;1.33;;;12.60;1.00;;;;;;7387878;19;20459;-74
2022/12/29 10:22:22;;;;;;;3.75;1.38;;;12.60;1.00;;;;;;7392348;19;20022;-74
2022/12/29 10:24:57;;;;;;;9.30;1.30;;;12.70;1.00;;;;;;7392656;19;20022;-74
2022/12/29 10:27:27;;;;;;;4.30;1.27;;;12.70;1.00;;;;;;7392099;19;20015;-73
2022/12/29 10:29:59;;;;;;;2.83;1.35;;;12.70;1.00;;;;;;7390107;19;20031;-74
2022/12/29 10:32:34;;;;;;;5.03;1.20;;;12.80;1.00;;;;;;7391753;19;20025;-74
2022/12/29 10:35:12;;;;;;;2.38;1.38;;;12.80;1.00;;;;;;7392526;19;20010;-72
2022/12/29 10:37:47;;;;;;;3.88;1.00;;;12.90;1.00;;;;;;7390742;19;20035;-73
2022/12/29 10:40:27;;;;;;;3.65;1.20;;;13.10;1.00;;;;;;7386350;19;20362;-74
2022/12/29 10:42:59;;;;;;;2.10;1.45;;;13.00;1.00;;;;;;7391490;19;20014;-74
2022/12/29 10:45:33;;;;;;;8.90;6.35;;;13.00;1.00;;;;;;7391626;19;20066;-74
2022/12/29 10:48:07;;;;;;;1.70;1.20;;;13.00;1.00;;;;;;7390525;19;20637;-73
2022/12/29 10:50:42;;;;;;;1.77;1.02;;;13.00;1.00;;;;;;7387111;19;20018;-74
2022/12/29 10:53:21;;;;;;;3.53;1.00;;;13.00;1.00;;;;;;7392666;19;20099;-73
2022/12/29 10:55:54;;;;;;;3.13;1.58;;;12.90;1.00;;;;;;7398925;19;20043;-75
2022/12/29 10:58:25;;;;;;;2.45;1.20;;;12.90;1.00;;;;;;7397343;19;20021;-73
2022/12/29 11:00:56;;;;;;;2.88;1.27;;;13.00;1.00;;;;;;7397458;19;20040;-73
2022/12/29 11:03:43;;;;;;;3.83;1.20;;;13.00;1.00;;;;;;7397662;19;20023;-74
2022/12/29 11:06:17;;;;;;;5.05;1.30;;;12.90;1.00;;;;;;7398793;19;20100;-75
2022/12/29 11:08:55;;;;;;;3.45;1.23;;;12.80;1.00;;;;;;7397512;19;20082;-74
2022/12/29 11:11:34;;;;;;;2.67;1.20;;;12.80;1.00;;;;;;7339208;19;20015;-73
2022/12/29 11:14:13;;;;;;;5.20;1.38;;;12.70;1.00;;;;;;7369465;19;20015;-74
2022/12/29 11:16:44;;;;;;;1.58;1.10;;;12.80;1.00;;;;;;7370048;19;20297;-73
2022/12/29 11:19:24;;;;;;;3.28;1.30;;;12.90;1.00;;;;;;7368000;19;20474;-73
2022/12/29 11:21:54;;;;;;;3.30;1.40;;;12.90;1.00;;;;;;7367478;19;20569;-72
2022/12/29 11:24:27;;;;;;;1.67;1.17;;;13.10;1.00;;;;;;7367649;19;20008;-73
2022/12/29 11:27:16;;;;;;;2.67;1.05;;;13.20;1.00;;;;;;7389109;19;20018;-74
2022/12/29 11:29:49;;;;;;;1.75;1.10;;;13.20;1.00;;;;;;7364510;19;20010;-73
2022/12/29 11:32:21;;;;;;;2.13;1.40;;;13.30;1.00;;;;;;7365984;19;20018;-73
2022/12/29 11:34:58;;;;;;;4.40;1.20;;;13.20;1.00;;;;;;7366488;19;20479;-74
2022/12/29 11:37:33;;;;;;;3.00;1.30;;;13.30;1.00;;;;;;7367097;19;20608;-74
2022/12/29 11:40:07;;;;;;;2.10;1.20;;;13.20;1.00;;;;;;7364848;19;20025;-73
2022/12/29 11:42:44;;;;;;;2.95;1.35;;;13.10;1.00;;;;;;7367407;19;20025;-71
2022/12/29 11:45:19;;;;;;;2.08;1.33;;;13.00;1.00;;;;;;7368445;19;20017;-71
2022/12/29 11:47:52;;;;;;;2.08;1.20;;;13.00;1.00;;;;;;7390148;19;20022;-73
2022/12/29 11:50:24;;;;;;;3.15;1.45;;;13.00;1.00;;;;;;7365449;19;20014;-74
2022/12/29 11:53:02;;;;;;;2.08;1.27;;;13.00;1.00;;;;;;7370268;19;20006;-73
2022/12/29 11:55:34;;;;;;;1.48;1.02;;;13.00;1.00;;;;;;7366303;19;20044;-73
2022/12/29 11:58:07;;;;;;;1.88;1.00;;;13.10;1.00;;;;;;7366629;19;20021;-73
2022/12/29 12:00:40;;;;;;;1.80;0.88;;;13.10;1.00;;;;;;7366244;19;20391;-73
2022/12/29 12:03:17;;;;;;;1.50;1.00;;;13.10;1.00;;;;;;7365581;19;20121;-74
2022/12/29 12:05:53;;;;;;;1.83;1.10;;;13.00;1.00;;;;;;7386893;19;20479;-73
2022/12/29 12:08:34;;;;;;;0.80;0.60;;;12.90;1.00;;;;;;7365341;19;20039;-73
2022/12/29 12:11:12;;;;;;;2.00;0.50;;;12.90;1.00;;;;;;7368544;19;20022;-74
2022/12/29 12:13:53;;;;;;;2.60;0.73;;;12.80;1.00;;;;;;7396866;19;20352;-74
2022/12/29 12:16:27;;;;;;;2.63;0.60;;;12.80;1.00;;;;;;7384755;19;20007;-74
2022/12/29 12:19:02;;;;;;;2.97;0.70;;;12.70;1.00;;;;;;7389168;19;20006;-74
2022/12/29 12:21:38;;;;;;;3.38;1.75;;;12.70;1.00;;;;;;7392287;19;20086;-73
2022/12/29 12:24:38;;;;;;;1.48;0.70;;;12.80;1.00;;;;;;7389258;19;20398;-74
2022/12/29 12:27:16;;;;;;;1.23;0.65;;;12.70;1.00;;;;;;7356548;19;20010;-75
2022/12/29 12:29:54;;;;;;;1.83;0.60;;;12.60;1.00;;;;;;7384796;19;20774;-73
2022/12/29 12:32:29;;;;;;;1.70;0.80;;;12.60;1.00;;;;;;7362615;19;20039;-73
2022/12/29 12:34:59;;;;;;;1.85;0.88;;;12.60;1.00;;;;;;7361859;19;20014;-75
2022/12/29 12:37:50;;;;;;;1.17;0.70;;;12.60;1.00;;;;;;7361301;19;20070;-73
2022/12/29 12:40:46;;;;;;;3.47;0.90;;;12.60;1.00;;;;;;7360789;19;20023;-74
2022/12/29 12:43:37;;;;;;;2.60;0.90;;;12.60;1.00;;;;;;7362833;19;20016;-74
2022/12/29 12:46:33;;;;;;;3.25;1.00;;;12.60;1.00;;;;;;7357475;19;20047;-74
2022/12/29 12:49:30;;;;;;;2.63;1.00;;;12.60;1.00;;;;;;7359674;19;20007;-76
2022/12/29 12:52:08;;;;;;;4.85;1.13;;;12.70;1.00;;;;;;7361903;19;20469;-74
2022/12/29 12:54:57;;;;;;;2.67;1.00;;;12.70;1.00;;;;;;7363223;19;20043;-74
2022/12/29 12:57:39;;;;;;;2.47;1.20;;;12.80;1.00;;;;;;7356846;19;20014;-75
2022/12/29 13:00:13;;;;;;;4.32;1.50;;;12.80;1.00;;;;;;7361961;19;20042;-75
2022/12/29 13:03:08;;;;;;;2.95;1.75;;;12.80;1.00;;;;;;7383706;19;20015;-75
2022/12/29 13:05:53;;;;;;;2.78;1.90;;;12.80;1.00;;;;;;7363653;19;20438;-75
2022/12/29 13:08:52;;;;;;;3.17;1.67;;;12.80;1.00;;;;;;7360690;19;20074;-75
2022/12/29 13:11:31;;;;;;;4.22;1.70;;;12.90;1.00;;;;;;7364636;19;20007;-74
2022/12/29 13:14:15;;;;;;;3.35;1.65;;;12.80;1.00;;;;;;7362469;19;20018;-73
2022/12/29 13:16:51;;;;;;;15.73;6.35;;;12.70;1.00;;;;;;7351731;19;20010;-73
2022/12/29 13:19:30;;;;;;;5.18;2.20;;;12.70;1.00;;;;;;7387397;19;20065;-71
2022/12/29 13:22:09;;;;;;;3.90;1.67;;;12.70;1.00;;;;;;7395834;19;20017;-74
2022/12/29 13:24:54;;;;;;;3.15;1.60;;;12.70;1.00;;;;;;7380715;19;20015;-73
2022/12/29 13:27:30;;;;;;;4.55;1.98;;;12.70;1.00;;;;;;7360700;19;20030;-73
2022/12/29 13:30:10;;;;;;;4.60;1.83;;;12.70;1.00;;;;;;7389107;19;20022;-73
2022/12/29 13:32:53;;;;;;;4.95;2.05;;;12.70;1.00;;;;;;7389145;19;20002;-73
2022/12/29 13:35:38;;;;;;;3.15;1.70;;;12.70;1.00;;;;;;7392680;19;20015;-74
2022/12/29 13:38:14;;;;;;;6.75;1.70;;;12.60;1.00;;;;;;7385722;19;20115;-74
2022/12/29 13:40:47;;;;;;;2.55;1.80;;;12.50;1.00;;;;;;7392200;19;20033;-74
2022/12/29 13:43:20;;;;;;;2.88;1.50;;;12.40;1.00;;;;;;7391736;19;20018;-74
2022/12/29 13:45:58;;;;;;;3.50;2.00;;;12.30;1.00;;;;;;7389750;19;20035;-74
2022/12/29 13:48:38;;;;;;;3.47;1.60;;;12.30;1.00;;;;;;7385916;19;20014;-74
2022/12/29 13:51:12;;;;;;;4.43;1.63;;;12.30;1.00;;;;;;7363598;19;20003;-74
2022/12/29 13:53:57;;;;;;;3.58;1.55;;;12.30;1.00;;;;;;7385515;19;20018;-74
2022/12/29 13:56:28;;;;;;;;;;;12.30;1.00;;;;;;7356687;19;20114;-74
2022/12/29 13:59:06;;;;;;;2.78;1.88;;;12.30;1.00;;;;;;7362261;19;19974;-74
2022/12/29 14:01:42;;;;;;;2.55;1.63;;;12.20;1.00;;;;;;7361098;19;20014;-74
2022/12/29 14:04:16;;;;;;;3.13;1.77;;;12.20;1.00;;;;;;7362344;19;20082;-74
2022/12/29 14:07:00;;;;;;;5.45;1.88;;;12.20;1.00;;;;;;7356041;19;20024;-74
2022/12/29 14:09:43;;;;;;;2.35;1.50;;;12.20;1.00;;;;;;7360191;19;20353;-75
2022/12/29 14:12:34;;;;;;;3.30;1.50;;;12.20;1.00;;;;;;7381822;19;20617;-75